Time;durP1;ratioP1;P1;durP2;ratioP2;P2;SDS_P1;SDS_P2;PMS_P1;PMS_P2;Temp;Humidity;BMP_temperature;BMP_pressure;BME280_temperature;BME280_humidity;BME280_pressure;Samples;Min_cycle;Max_cycle;Signal;HPM_P1;HPM_P2
2023/01/27 05:50:07;;;;;;;;;8.00;3.25;;;;;3.57;100.00;101787.78;5506919;23;49655;-72
2023/01/27 05:52:32;;;;;;;;;7.00;5.00;;;;;5.98;100.00;102189.88;4898506;29;49665;-71
2023/01/27 05:54:57;;;;;;;;;1.50;1.50;;;;;5.75;100.00;102151.94;4904517;28;51116;-70
2023/01/27 05:57:23;;;;;;;;;1.75;1.00;;;;;5.67;100.00;102130.63;4908595;28;49740;-70
2023/01/27 05:59:48;;;;;;;;;6.00;3.25;;;;;5.79;100.00;102159.16;4909870;28;49749;-73
2023/01/27 06:02:14;;;;;;;;;1.50;1.50;;;;;5.31;100.00;102069.34;4911611;28;49606;-77
2023/01/27 06:04:39;;;;;;;;;2.50;1.25;;;;;4.31;100.00;101938.91;4910568;28;49777;-77
2023/01/27 06:07:05;;;;;;;;;4.75;4.75;;;;;4.56;100.00;101978.69;4910320;28;49602;-74
2023/01/27 06:09:30;;;;;;;;;9.00;4.50;;;;;6.02;100.00;102189.28;4911670;28;49725;-74
2023/01/27 06:11:55;;;;;;;;;2.00;2.00;;;;;5.72;100.00;102123.09;4912574;28;49564;-73
2023/01/27 06:14:21;;;;;;;;;3.50;3.00;;;;;5.49;100.00;102081.69;4911394;28;49866;-74
2023/01/27 06:16:48;;;;;;;;;2.75;2.75;;;;;4.59;100.00;101934.66;4912339;29;49557;-72
2023/01/27 06:19:13;;;;;;;;;3.25;3.25;;;;;5.85;100.00;102148.22;4908655;29;49522;-75
2023/01/27 06:21:39;;;;;;;;;2.00;2.00;;;;;5.56;100.00;102099.50;4904533;28;49779;-74
2023/01/27 06:24:04;;;;;;;;;2.75;2.75;;;;;5.89;100.00;102153.72;4896724;28;49898;-70
2023/01/27 06:26:33;;;;;;;;;4.50;3.00;;;;;6.07;100.00;102187.84;4895275;28;49926;-70
2023/01/27 06:28:58;;;;;;;;;5.75;3.50;;;;;6.10;100.00;102190.66;4894731;29;50091;-70
2023/01/27 06:31:24;;;;;;;;;3.00;1.25;;;;;6.03;100.00;102189.38;4895329;29;49770;-71
2023/01/27 06:33:57;;;;;;;;;3.50;2.00;;;;;4.73;100.00;101968.44;4894466;28;49836;-78
2023/01/27 06:36:23;;;;;;;;;6.50;2.50;;;;;6.04;100.00;102192.88;4895304;28;50028;-72
2023/01/27 06:38:49;;;;;;;;;3.75;3.75;;;;;6.05;100.00;102196.38;4892416;28;50214;-67
2023/01/27 06:41:15;;;;;;;;;6.00;3.50;;;;;5.98;100.00;102190.81;4880069;28;50364;-66
2023/01/27 06:43:41;;;;;;;;;2.25;2.25;;;;;5.26;100.00;102069.84;4884808;28;50391;-66
2023/01/27 06:46:06;;;;;;;;;2.75;2.75;;;;;5.92;100.00;102179.09;4882754;28;50057;-66
2023/01/27 06:48:36;;;;;;;;;1.00;1.00;;;;;5.98;100.00;102195.09;4885047;28;50321;-67
2023/01/27 06:51:02;;;;;;;;;3.25;3.25;;;;;6.00;100.00;102196.13;4884118;28;50236;-65
2023/01/27 06:53:28;;;;;;;;;4.25;3.25;;;;;5.15;100.00;102049.25;4884387;29;50090;-69
2023/01/27 06:55:57;;;;;;;;;5.25;3.25;;;;;5.90;100.00;102180.69;4884442;28;50497;-69
2023/01/27 06:58:23;;;;;;;;;5.00;2.50;;;;;5.81;100.00;102165.38;4884903;29;50350;-68
2023/01/27 07:00:49;;;;;;;;;2.00;2.00;;;;;5.99;100.00;102196.94;4886027;29;49863;-67
2023/01/27 07:03:14;;;;;;;;;4.50;2.75;;;;;5.92;100.00;102182.59;4893532;28;50690;-73
2023/01/27 07:05:41;;;;;;;;;3.25;3.25;;;;;5.45;100.00;102128.38;4893327;28;49719;-68
2023/01/27 07:08:07;;;;;;;;;1.00;0.00;;;;;5.44;100.00;102134.41;4893173;29;49903;-68
2023/01/27 07:10:32;;;;;;;;;4.75;3.00;;;;;5.45;100.00;102124.88;4894328;28;49990;-67
2023/01/27 07:13:11;;;;;;;;;8.50;6.75;;;;;5.59;100.00;102130.94;4894349;28;49797;-69
2023/01/27 07:15:37;;;;;;;;;9.75;4.50;;;;;5.31;100.00;102118.81;4888572;29;49916;-69
2023/01/27 07:18:03;;;;;;;;;3.00;3.00;;;;;5.48;100.00;102138.09;4894255;28;49878;-74
2023/01/27 07:20:29;;;;;;;;;4.75;4.75;;;;;5.49;100.00;102124.25;4894789;29;50237;-67
2023/01/27 07:22:58;;;;;;;;;6.25;6.25;;;;;5.87;100.00;102163.13;4894411;28;50686;-71
2023/01/27 07:25:24;;;;;;;;;5.75;5.25;;;;;4.48;100.00;101969.50;4894526;28;49997;-69
2023/01/27 07:27:49;;;;;;;;;7.25;6.00;;;;;4.22;100.00;101878.53;4894294;29;50175;-74
2023/01/27 07:30:15;;;;;;;;;5.00;2.50;;;;;6.09;100.00;102206.22;4894270;28;49839;-71
2023/01/27 07:32:40;;;;;;;;;8.00;4.75;;;;;5.91;100.00;102177.31;4894022;28;49940;-71
2023/01/27 07:35:06;;;;;;;;;7.75;5.00;;;;;4.15;100.00;101894.53;4893607;28;49759;-72
2023/01/27 07:37:31;;;;;;;;;3.50;3.50;;;;;4.82;100.00;102039.28;4892177;28;49887;-71
2023/01/27 07:39:57;;;;;;;;;6.75;4.50;;;;;5.32;100.00;102091.06;4893460;28;49799;-71
2023/01/27 07:42:22;;;;;;;;;3.50;2.50;;;;;4.73;100.00;101971.03;4896409;28;50422;-71
2023/01/27 07:44:47;;;;;;;;;3.50;3.50;;;;;5.95;100.00;102190.59;4896717;28;49818;-72
2023/01/27 07:47:13;;;;;;;;;5.25;4.00;;;;;5.25;100.00;102076.75;4892629;29;49861;-70
2023/01/27 07:49:38;;;;;;;;;6.00;5.00;;;;;5.74;100.00;102173.59;4893530;29;49725;-71
2023/01/27 07:52:04;;;;;;;;;4.50;4.50;;;;;5.11;100.00;102057.66;4893388;28;49903;-72
2023/01/27 07:54:29;;;;;;;;;5.00;5.00;;;;;5.83;100.00;102195.03;4893516;28;49825;-71
2023/01/27 07:56:54;;;;;;;;;5.75;5.75;;;;;6.08;100.00;102251.31;4897656;28;49952;-69
2023/01/27 07:59:20;;;;;;;;;5.00;5.00;;;;;5.86;100.00;102220.38;4894259;28;49801;-68
2023/01/27 08:01:46;;;;;;;;;5.50;4.00;;;;;6.11;100.00;102252.44;4893491;29;50294;-69
2023/01/27 08:04:11;;;;;;;;;5.50;4.00;;;;;5.79;100.00;102203.47;4895757;28;49938;-70
2023/01/27 08:06:38;;;;;;;;;10.00;8.50;;;;;5.82;100.00;102211.47;4893272;28;50147;-70
2023/01/27 08:09:04;;;;;;;;;3.75;3.75;;;;;5.84;100.00;102209.84;4893896;28;50047;-71
2023/01/27 08:11:29;;;;;;;;;8.75;7.00;;;;;5.26;100.00;102109.78;4899626;28;50346;-70
2023/01/27 08:13:54;;;;;;;;;7.00;5.00;;;;;5.63;100.00;102172.94;4901061;28;49722;-70
2023/01/27 08:16:20;;;;;;;;;5.00;5.00;;;;;5.51;100.00;102140.91;4893322;29;49923;-71
2023/01/27 08:18:45;;;;;;;;;6.50;5.50;;;;;6.00;100.00;102220.47;4894840;28;49707;-73
2023/01/27 08:21:11;;;;;;;;;5.50;4.00;;;;;6.34;100.00;102255.56;4892779;28;50699;-71
2023/01/27 08:23:37;;;;;;;;;6.00;3.50;;;;;6.34;100.00;102261.66;4900208;28;49705;-69
2023/01/27 08:26:04;;;;;;;;;7.00;7.00;;;;;6.12;100.00;102242.91;4894656;28;49875;-69
2023/01/27 08:28:33;;;;;;;;;8.00;7.00;;;;;5.99;100.00;102210.88;4908210;29;49794;-69
2023/01/27 08:31:07;;;;;;;;;10.50;9.00;;;;;6.16;100.00;102218.81;4908361;28;49955;-70
2023/01/27 08:33:33;;;;;;;;;8.50;7.00;;;;;5.73;100.00;102151.84;4907241;29;49431;-71
2023/01/27 08:36:18;;;;;;;;;7.50;5.75;;;;;6.36;100.00;102277.41;4909094;28;49483;-69
2023/01/27 08:38:44;;;;;;;;;14.00;8.00;;;;;6.10;100.00;102221.06;4909274;28;49423;-71
2023/01/27 08:41:12;;;;;;;;;4.50;3.00;;;;;5.33;100.00;102095.47;4908766;28;50235;-70
2023/01/27 08:43:38;;;;;;;;;9.25;7.25;;;;;6.38;100.00;102281.94;4908414;28;49602;-70
2023/01/27 08:46:05;;;;;;;;;8.00;4.50;;;;;5.64;100.00;102143.47;4909571;28;49697;-70
2023/01/27 08:48:31;;;;;;;;;9.00;8.50;;;;;5.61;100.00;102131.97;4901775;29;49982;-70
2023/01/27 08:50:58;;;;;;;;;7.50;7.25;;;;;6.02;100.00;102203.22;4907877;28;49607;-71
2023/01/27 08:53:25;;;;;;;;;14.00;10.25;;;;;6.09;100.00;102221.88;4908190;28;49514;-69
2023/01/27 08:55:50;;;;;;;;;11.75;6.75;;;;;6.30;100.00;102273.63;4908337;29;49688;-69
2023/01/27 08:58:16;;;;;;;;;10.50;9.75;;;;;6.00;100.00;102198.72;4907505;29;49863;-69
2023/01/27 09:00:42;;;;;;;;;8.00;6.50;;;;;6.10;100.00;102234.09;4907351;29;50657;-69
2023/01/27 09:03:07;;;;;;;;;7.00;6.00;;;;;6.03;100.00;102202.41;4904452;28;49518;-70
2023/01/27 09:05:34;;;;;;;;;11.75;9.75;;;;;5.55;100.00;102136.78;4897875;28;49798;-71
2023/01/27 09:08:00;;;;;;;;;14.25;12.25;;;;;6.18;100.00;102238.97;4907324;28;49368;-70
2023/01/27 09:10:25;;;;;;;;;6.00;5.00;;;;;6.42;100.00;102312.59;4901495;28;51737;-70
2023/01/27 09:12:51;;;;;;;;;6.00;6.00;;;;;4.77;100.00;102010.38;4899775;28;49606;-70
2023/01/27 09:15:16;;;;;;;;;6.75;4.50;;;;;5.51;100.00;102134.81;4897576;28;49573;-70
2023/01/27 09:17:41;;;;;;;;;9.25;5.75;;;;;6.41;100.00;102302.97;4892975;28;50041;-69
2023/01/27 09:20:08;;;;;;;;;14.50;13.50;;;;;5.95;100.00;102211.47;4893632;29;49658;-69
2023/01/27 09:22:35;;;;;;;;;7.00;6.50;;;;;4.56;100.00;102028.09;4896254;28;49839;-70
2023/01/27 09:25:01;;;;;;;;;8.75;8.00;;;;;5.98;100.00;102248.16;4897693;29;50060;-70
2023/01/27 09:27:27;;;;;;;;;7.75;7.25;;;;;5.42;100.00;102123.00;4897332;29;50026;-70
2023/01/27 09:29:52;;;;;;;;;9.00;8.00;;;;;6.34;100.00;102285.13;4902340;28;49774;-70
2023/01/27 09:32:18;;;;;;;;;11.00;8.25;;;;;6.24;100.00;102268.03;4902957;28;49746;-69
2023/01/27 09:34:43;;;;;;;;;14.75;10.75;;;;;6.27;100.00;102244.75;4900317;28;49941;-70
2023/01/27 09:37:11;;;;;;;;;5.50;5.25;;;;;5.57;100.00;102127.34;4904523;29;49700;-70
2023/01/27 09:39:49;;;;;;;;;9.00;7.00;;;;;6.44;100.00;102313.59;4910912;29;49779;-70
2023/01/27 09:42:50;;;;;;;;;2.25;2.25;;;;;5.62;100.00;102191.97;4909768;28;49482;-70
2023/01/27 09:45:18;;;;;;;;;13.75;9.00;;;;;6.34;100.00;102281.63;4898367;29;49960;-70
2023/01/27 09:48:09;;;;;;;;;7.00;7.00;;;;;6.33;100.00;102293.78;4899925;29;49786;-70
2023/01/27 09:50:39;;;;;;;;;11.25;11.25;;;;;6.46;100.00;102304.16;4892359;29;50729;-73
2023/01/27 09:53:12;;;;;;;;;10.00;10.00;;;;;6.43;100.00;102293.53;4895428;28;49770;-75
2023/01/27 09:55:49;;;;;;;;;15.25;10.00;;;;;5.01;100.00;102103.81;4895004;28;49795;-72
2023/01/27 09:58:25;;;;;;;;;10.50;10.00;;;;;6.39;100.00;102299.38;4895821;28;49988;-72
2023/01/27 10:01:22;;;;;;;;;7.50;7.00;;;;;4.60;100.00;102035.28;4898282;28;50423;-73
2023/01/27 10:04:06;;;;;;;;;8.25;8.25;;;;;6.45;100.00;102310.19;4888829;28;49956;-73
2023/01/27 10:06:46;;;;;;;;;9.75;7.00;;;;;5.24;100.00;102089.69;4893774;29;49940;-74
2023/01/27 10:09:49;;;;;;;;;13.00;12.75;;;;;6.49;100.00;102313.91;4895693;29;49875;-74
2023/01/27 10:12:38;;;;;;;;;10.00;7.75;;;;;6.47;100.00;102310.31;4894246;28;50707;-74
2023/01/27 10:15:12;;;;;;;;;7.25;6.00;;;;;5.69;100.00;102201.06;4893632;29;50046;-74
2023/01/27 10:18:14;;;;;;;;;6.25;5.75;;;;;6.56;100.00;102316.06;4894924;28;49921;-74
2023/01/27 10:20:59;;;;;;;;;13.50;11.25;;;;;6.59;100.00;102311.94;4896667;28;49861;-73
2023/01/27 10:23:48;;;;;;;;;9.75;8.50;;;;;6.57;100.00;102323.09;4895457;28;50880;-73
2023/01/27 10:26:29;;;;;;;;;8.25;8.25;;;;;6.60;100.00;102331.13;4894507;29;50038;-76
2023/01/27 10:29:07;;;;;;;;;10.00;6.00;;;;;5.12;100.00;102110.63;4895490;28;49606;-75
2023/01/27 10:31:43;;;;;;;;;8.50;7.00;;;;;5.98;100.00;102260.25;4892103;29;49862;-75
2023/01/27 10:34:37;;;;;;;;;5.50;5.50;;;;;5.27;100.00;102144.53;4894919;28;50801;-75
2023/01/27 10:37:26;;;;;;;;;6.00;6.00;;;;;6.30;100.00;102304.94;4895701;29;49923;-73
2023/01/27 10:40:02;;;;;;;;;15.00;11.00;;;;;4.93;100.00;102058.22;4889216;29;49986;-72
2023/01/27 10:42:34;;;;;;;;;8.00;7.00;;;;;6.59;100.00;102339.75;4895349;28;50057;-73
2023/01/27 10:45:09;;;;;;;;;12.00;11.50;;;;;6.59;100.00;102325.00;4896283;28;50867;-74
2023/01/27 10:47:53;;;;;;;;;11.00;6.00;;;;;6.55;100.00;102322.09;4892780;29;49862;-72
2023/01/27 10:50:27;;;;;;;;;9.25;9.25;;;;;5.89;100.00;102208.44;4893218;29;49944;-72
2023/01/27 10:53:09;;;;;;;;;13.75;13.50;;;;;5.26;100.00;102104.59;4889234;29;49769;-75
2023/01/27 10:55:53;;;;;;;;;10.75;8.50;;;;;5.90;100.00;102259.81;4895515;29;50968;-73
2023/01/27 10:58:35;;;;;;;;;18.00;8.75;;;;;4.99;100.00;102108.03;4895498;29;50029;-71
2023/01/27 11:01:05;;;;;;;;;45.00;41.25;;;;;5.29;100.00;102142.94;4900855;29;49864;-72
2023/01/27 11:03:56;;;;;;;;;22.50;18.25;;;;;6.27;100.00;102296.00;4893827;28;50223;-73
2023/01/27 11:06:27;;;;;;;;;22.50;18.50;;;;;5.70;100.00;102209.00;4892936;28;49960;-72
2023/01/27 11:09:00;;;;;;;;;26.00;24.00;;;;;5.29;100.00;102145.53;4893252;29;49780;-72
2023/01/27 11:11:44;;;;;;;;;9.75;9.50;;;;;5.14;100.00;102148.97;4896603;29;49964;-75
2023/01/27 11:14:27;;;;;;;;;10.25;10.25;;;;;5.09;100.00;102110.41;4893703;28;49985;-74
2023/01/27 11:17:13;;;;;;;;;8.00;2.00;;;;;6.48;100.00;102367.78;4893649;29;50896;-74
2023/01/27 11:19:53;;;;;;;;;9.25;6.00;;;;;6.21;100.00;102288.69;4893088;28;49838;-73
2023/01/27 11:22:36;;;;;;;;;10.00;6.75;;;;;5.89;100.00;102236.22;4894048;29;49956;-73
2023/01/27 11:25:11;;;;;;;;;9.50;8.75;;;;;6.43;100.00;102322.22;4894070;28;49855;-72
2023/01/27 11:27:53;;;;;;;;;13.50;10.75;;;;;6.53;100.00;102319.38;4895983;29;50003;-73
2023/01/27 11:30:31;;;;;;;;;8.75;7.00;;;;;5.84;100.00;102217.66;4894925;28;49819;-71
2023/01/27 11:33:16;;;;;;;;;13.75;7.75;;;;;6.15;100.00;102246.59;4893412;29;50055;-71
2023/01/27 11:35:41;;;;;;;;;11.00;10.00;;;;;6.59;100.00;102332.81;4895213;28;49774;-71
2023/01/27 11:38:15;;;;;;;;;17.25;12.00;;;;;5.65;100.00;102168.72;4894073;28;50086;-70
2023/01/27 11:40:42;;;;;;;;;10.75;9.00;;;;;6.19;100.00;102201.66;4892894;29;49886;-74
2023/01/27 11:43:16;;;;;;;;;10.75;10.75;;;;;6.20;100.00;102185.22;4894093;29;49906;-67
2023/01/27 11:45:44;;;;;;;;;6.25;6.25;;;;;6.73;100.00;102278.84;4894126;28;49680;-72
2023/01/27 11:48:13;;;;;;;;;15.00;11.00;;;;;6.25;100.00;102208.94;4892088;28;50247;-69
2023/01/27 11:50:40;;;;;;;;;11.00;9.00;;;;;6.04;100.00;102182.44;4893712;29;49532;-71
2023/01/27 11:53:15;;;;;;;;;11.00;11.00;;;;;6.86;100.00;102297.06;4893106;28;49901;-68
2023/01/27 11:55:45;;;;;;;;;13.00;11.00;;;;;6.24;100.00;102213.25;4893712;29;49839;-72
2023/01/27 11:58:35;;;;;;;;;15.25;12.00;;;;;6.52;100.00;102233.19;4893849;28;50834;-69
2023/01/27 12:01:04;;;;;;;;;16.00;11.00;;;;;6.12;100.00;102202.09;4894210;28;49756;-69
2023/01/27 12:03:47;;;;;;;;;11.00;9.75;;;;;6.64;100.00;102304.38;4893467;28;49904;-70
2023/01/27 12:06:17;;;;;;;;;14.00;10.00;;;;;6.18;100.00;102222.44;4890229;29;49980;-69
2023/01/27 12:08:48;;;;;;;;;13.50;13.00;;;;;6.37;100.00;102254.06;4893144;28;50792;-68
2023/01/27 12:11:23;;;;;;;;;9.50;9.50;;;;;6.56;100.00;102276.91;4893805;28;49855;-70
2023/01/27 12:13:49;;;;;;;;;10.00;10.00;;;;;6.64;100.00;102280.00;4893622;28;49890;-71
2023/01/27 12:16:15;;;;;;;;;15.25;10.75;;;;;6.46;100.00;102264.13;4894126;28;49715;-71
2023/01/27 12:18:51;;;;;;;;;10.25;7.50;;;;;6.65;100.00;102279.19;4893059;28;50684;-67
2023/01/27 12:21:17;;;;;;;;;19.00;14.50;;;;;6.64;100.00;102283.50;4893807;28;49802;-68
2023/01/27 12:23:52;;;;;;;;;11.00;9.50;;;;;6.61;100.00;102283.34;4893781;29;49847;-69
2023/01/27 12:26:39;;;;;;;;;13.50;10.25;;;;;6.68;100.00;102289.84;4893832;29;49819;-73
2023/01/27 12:29:14;;;;;;;;;15.50;14.00;;;;;6.74;100.00;102277.13;4893279;28;50213;-75
2023/01/27 12:31:48;;;;;;;;;10.00;8.50;;;;;6.66;100.00;102266.25;4893698;28;49970;-72
2023/01/27 12:34:26;;;;;;;;;14.25;10.25;;;;;6.68;100.00;102276.78;4893177;28;49836;-71
2023/01/27 12:36:53;;;;;;;;;14.00;14.00;;;;;6.71;100.00;102263.91;4892559;29;49795;-71
2023/01/27 12:39:37;;;;;;;;;14.00;11.50;;;;;6.65;100.00;102272.25;4893316;28;50684;-72
2023/01/27 12:42:02;;;;;;;;;17.50;11.50;;;;;6.62;100.00;102268.56;4893171;29;49707;-70
2023/01/27 12:44:41;;;;;;;;;14.25;10.75;;;;;6.64;100.00;102274.78;4893408;28;49887;-71
2023/01/27 12:47:24;;;;;;;;;14.75;11.00;;;;;6.41;100.00;102234.25;4893387;28;49980;-72
2023/01/27 12:49:49;;;;;;;;;14.00;12.25;;;;;6.38;100.00;102231.47;4892854;29;50605;-72
2023/01/27 12:52:20;;;;;;;;;13.50;12.00;;;;;6.56;100.00;102259.59;4893161;28;49891;-70
2023/01/27 12:54:47;;;;;;;;;19.00;13.50;;;;;6.74;100.00;102259.75;4893289;29;49956;-73
2023/01/27 12:57:21;;;;;;;;;14.75;12.75;;;;;6.58;100.00;102247.53;4893518;28;49893;-72
2023/01/27 12:59:51;;;;;;;;;14.75;14.75;;;;;6.35;100.00;102193.03;4891414;29;50557;-68
2023/01/27 13:02:22;;;;;;;;;14.25;12.25;;;;;6.63;100.00;102236.44;4892954;28;49779;-71
2023/01/27 13:04:54;;;;;;;;;13.75;13.75;;;;;6.73;100.00;102260.56;4895333;29;49980;-69
2023/01/27 13:07:35;;;;;;;;;11.75;9.00;;;;;5.97;100.00;102156.81;4895986;28;49816;-67
2023/01/27 13:10:15;;;;;;;;;11.00;10.25;;;;;6.48;100.00;102263.44;4896197;28;51072;-68
2023/01/27 13:12:52;;;;;;;;;8.00;6.50;;;;;6.46;100.00;102269.34;4896394;28;49775;-67
2023/01/27 13:15:27;;;;;;;;;21.00;11.75;;;;;6.49;100.00;102259.13;4896584;28;49675;-68
2023/01/27 13:18:11;;;;;;;;;17.75;13.00;;;;;6.40;100.00;102241.19;4896106;28;49824;-67
2023/01/27 13:20:50;;;;;;;;;16.75;12.50;;;;;6.36;100.00;102238.28;4895750;28;51307;-68
2023/01/27 13:23:22;;;;;;;;;18.50;14.00;;;;;6.48;100.00;102271.25;4896048;29;49894;-68
2023/01/27 13:26:10;;;;;;;;;11.75;10.75;;;;;6.24;100.00;102213.25;4893527;28;49874;-72
2023/01/27 13:28:41;;;;;;;;;2.00;1.00;;;;;6.32;100.00;102252.84;4890486;28;49871;-65
2023/01/27 13:31:18;;;;;;;;;6.50;6.25;;;;;6.28;100.00;102270.03;4895197;28;49890;-65
2023/01/27 13:33:53;;;;;;;;;16.25;12.00;;;;;6.25;100.00;102264.59;4895490;28;49721;-66
2023/01/27 13:36:43;;;;;;;;;10.00;8.75;;;;;6.24;100.00;102247.16;4899144;28;50221;-64
2023/01/27 13:39:27;;;;;;;;;13.25;13.00;;;;;6.15;100.00;102224.81;4892167;29;49863;-65
2023/01/27 13:42:12;;;;;;;;;10.75;9.25;;;;;6.40;100.00;102255.94;4897236;29;50402;-66
2023/01/27 13:44:39;;;;;;;;;8.75;8.75;;;;;6.52;100.00;102257.59;4896863;28;49669;-65
2023/01/27 13:47:15;;;;;;;;;10.50;7.50;;;;;6.43;100.00;102238.75;4898561;28;49728;-66
2023/01/27 13:49:46;;;;;;;;;6.50;6.50;;;;;6.51;100.00;102253.16;4899534;28;49858;-65
2023/01/27 13:52:11;;;;;;;;;7.50;6.50;;;;;6.45;100.00;102244.06;4895334;29;49914;-67
2023/01/27 13:54:37;;;;;;;;;6.00;5.75;;;;;6.35;100.00;102218.22;4895356;29;50051;-67
2023/01/27 13:57:18;;;;;;;;;9.75;9.25;;;;;6.55;100.00;102259.47;4897226;29;50034;-66
2023/01/27 14:00:00;;;;;;;;;8.50;6.00;;;;;6.55;100.00;102264.69;4900386;28;50025;-66
2023/01/27 14:03:03;;;;;;;;;12.00;9.00;;;;;6.63;100.00;102268.66;4897707;28;51322;-66
2023/01/27 14:05:40;;;;;;;;;6.50;5.50;;;;;6.47;100.00;102255.50;4896323;29;49839;-67
2023/01/27 14:08:31;;;;;;;;;13.50;9.75;;;;;6.42;100.00;102243.88;4895083;28;49637;-66
2023/01/27 14:11:23;;;;;;;;;9.00;9.00;;;;;6.37;100.00;102282.75;4895091;28;49807;-67
2023/01/27 14:14:19;;;;;;;;;7.75;6.50;;;;;6.37;100.00;102280.13;4893865;29;49857;-68
2023/01/27 14:16:47;;;;;;;;;8.25;6.25;;;;;6.25;100.00;102276.75;4894580;28;50143;-70
2023/01/27 14:19:26;;;;;;;;;10.75;9.25;;;;;5.47;100.00;102142.41;4893543;29;49970;-68
2023/01/27 14:22:17;;;;;;;;;10.50;10.00;;;;;5.84;100.00;102230.69;4900446;28;50030;-67
2023/01/27 14:24:52;;;;;;;;;16.50;13.00;;;;;5.98;100.00;102255.97;4896709;29;51525;-67
2023/01/27 14:27:40;;;;;;;;;15.00;15.00;;;;;6.22;100.00;102280.06;4903511;28;49757;-68
2023/01/27 14:30:23;;;;;;;;;13.75;10.25;;;;;6.17;100.00;102283.19;4897074;29;50065;-71
2023/01/27 14:33:00;;;;;;;;;9.50;8.00;;;;;6.07;100.00;102315.59;4893998;28;49809;-66
2023/01/27 14:35:50;;;;;;;;;11.25;9.75;;;;;6.00;100.00;102308.22;4893536;28;49913;-66
2023/01/27 14:38:47;;;;;;;;;15.25;14.00;;;;;5.85;100.00;102295.06;4889311;29;49807;-66
2023/01/27 14:41:24;;;;;;;;;13.00;11.75;;;;;5.74;100.00;102263.09;4895168;29;49744;-66
2023/01/27 14:44:05;;;;;;;;;9.75;8.25;;;;;6.02;100.00;102298.78;4894551;29;49795;-65
2023/01/27 14:46:48;;;;;;;;;11.50;10.25;;;;;6.07;100.00;102293.84;4892861;29;51089;-66
2023/01/27 14:49:51;;;;;;;;;13.25;9.25;;;;;6.09;100.00;102318.31;4892672;28;49890;-67
2023/01/27 14:52:19;;;;;;;;;9.50;8.00;;;;;6.06;100.00;102319.00;4890587;29;49708;-67
2023/01/27 14:55:05;;;;;;;;;15.75;13.50;;;;;6.00;100.00;102314.31;4894632;28;49931;-66
2023/01/27 14:57:42;;;;;;;;;16.50;12.75;;;;;6.05;100.00;102327.63;4894004;29;51051;-65
2023/01/27 15:00:38;;;;;;;;;14.25;13.50;;;;;6.06;100.00;102323.31;4894669;28;49941;-65
2023/01/27 15:03:03;;;;;;;;;12.00;10.75;;;;;6.07;100.00;102322.50;4890651;29;49778;-68
2023/01/27 15:05:42;;;;;;;;;12.25;10.75;;;;;6.15;100.00;102322.19;4894153;28;49743;-68
2023/01/27 15:08:41;;;;;;;;;14.25;9.75;;;;;6.08;100.00;102321.72;4892603;28;50173;-68
2023/01/27 15:11:44;;;;;;;;;10.50;10.00;;;;;6.10;100.00;102341.00;4889445;29;49914;-68
2023/01/27 15:14:18;;;;;;;;;11.75;10.75;;;;;6.04;100.00;102346.69;4893662;28;49957;-67
2023/01/27 15:16:49;;;;;;;;;10.00;8.50;;;;;5.96;100.00;102347.91;4890421;29;49886;-66
2023/01/27 15:19:47;;;;;;;;;15.50;13.00;;;;;5.91;100.00;102338.91;4891309;29;52498;-67
2023/01/27 15:22:35;;;;;;;;;8.00;6.25;;;;;5.81;100.00;102297.38;4895038;28;49817;-68
2023/01/27 15:25:20;;;;;;;;;9.00;9.00;;;;;6.02;100.00;102345.69;4890125;29;49745;-69
2023/01/27 15:27:47;;;;;;;;;11.50;7.50;;;;;5.83;100.00;102321.81;4891716;29;50050;-68
2023/01/27 15:30:33;;;;;;;;;14.00;8.75;;;;;5.81;100.00;102323.44;4890159;29;51637;-67
2023/01/27 15:32:59;;;;;;;;;15.00;12.75;;;;;5.78;100.00;102331.03;4892692;28;49957;-68
2023/01/27 15:35:25;;;;;;;;;14.00;12.00;;;;;5.90;100.00;102357.91;4892756;28;50017;-69
2023/01/27 15:37:58;;;;;;;;;5.00;3.50;;;;;5.75;100.00;102347.38;4892544;28;49923;-68
2023/01/27 15:40:25;;;;;;;;;9.00;8.75;;;;;5.66;100.00;102349.38;4888020;28;51346;-69
2023/01/27 15:42:59;;;;;;;;;18.00;11.00;;;;;5.59;100.00;102340.25;4892060;29;49781;-68
2023/01/27 15:45:30;;;;;;;;;10.25;9.25;;;;;5.64;100.00;102364.03;4892204;28;50249;-68
2023/01/27 15:48:11;;;;;;;;;12.25;11.50;;;;;5.72;100.00;102368.03;4891215;29;50352;-68
2023/01/27 15:50:45;;;;;;;;;11.00;11.00;;;;;5.71;100.00;102359.31;4888308;29;50696;-67
2023/01/27 15:53:14;;;;;;;;;10.50;10.00;;;;;5.87;100.00;102373.34;4893299;28;49700;-69
2023/01/27 15:55:49;;;;;;;;;10.00;8.00;;;;;5.87;100.00;102379.44;4892334;28;49917;-69
2023/01/27 15:58:31;;;;;;;;;16.75;13.25;;;;;5.85;100.00;102381.06;4890345;29;49772;-70
2023/01/27 16:01:00;;;;;;;;;13.25;10.00;;;;;5.86;100.00;102385.47;4891523;29;51253;-66
2023/01/27 16:03:43;;;;;;;;;14.00;11.00;;;;;5.83;100.00;102380.06;4891537;29;49725;-68
2023/01/27 16:06:24;;;;;;;;;13.00;9.00;;;;;5.90;100.00;102382.31;4884927;29;49923;-70
2023/01/27 16:08:57;;;;;;;;;17.50;15.50;;;;;5.86;100.00;102392.38;4890619;29;50093;-67
2023/01/27 16:11:38;;;;;;;;;10.25;9.75;;;;;5.71;100.00;102372.34;4892692;29;50001;-62
2023/01/27 16:14:10;;;;;;;;;11.75;9.00;;;;;5.81;100.00;102389.50;4891585;29;50179;-67
2023/01/27 16:16:35;;;;;;;;;14.75;13.75;;;;;5.68;100.00;102371.22;4891630;28;50118;-68
2023/01/27 16:19:09;;;;;;;;;13.25;11.25;;;;;5.75;100.00;102389.06;4890358;29;51054;-68
2023/01/27 16:21:37;;;;;;;;;11.00;9.25;;;;;5.57;100.00;102362.69;4892730;28;50865;-68
2023/01/27 16:24:21;;;;;;;;;12.75;12.00;;;;;5.64;100.00;102374.44;4890289;28;51095;-68
2023/01/27 16:27:17;;;;;;;;;9.75;6.25;;;;;5.70;100.00;102404.41;4900207;28;49865;-67
2023/01/27 16:29:49;;;;;;;;;11.50;11.50;;;;;5.56;100.00;102379.13;4897830;28;50166;-69
2023/01/27 16:32:18;;;;;;;;;12.75;9.25;;;;;5.68;100.00;102397.28;4896281;28;50529;-67
2023/01/27 16:34:48;;;;;;;;;10.00;10.00;;;;;5.61;100.00;102374.25;4898276;28;50102;-72
2023/01/27 16:37:26;;;;;;;;;10.00;9.75;;;;;5.20;100.00;102311.56;4889999;28;49915;-64
2023/01/27 16:40:13;;;;;;;;;25.25;13.50;;;;;5.82;100.00;102400.81;4888929;29;49943;-68
2023/01/27 16:43:10;;;;;;;;;17.00;17.00;;;;;5.82;100.00;102412.13;4896669;28;50945;-73
2023/01/27 16:45:46;;;;;;;;;20.25;13.75;;;;;5.91;100.00;102420.59;4890795;28;49952;-70
2023/01/27 16:48:23;;;;;;;;;14.00;14.00;;;;;5.81;100.00;102430.28;4889945;28;49864;-63
2023/01/27 16:50:51;;;;;;;;;10.00;10.00;;;;;5.71;100.00;102421.84;4885293;29;50063;-64
2023/01/27 16:53:23;;;;;;;;;13.75;11.00;;;;;5.74;100.00;102418.53;4888883;28;50007;-65
2023/01/27 16:56:00;;;;;;;;;16.25;14.00;;;;;5.90;100.00;102436.13;4890205;28;50087;-76
2023/01/27 16:58:26;;;;;;;;;18.75;15.75;;;;;5.87;100.00;102425.47;4890882;28;49957;-66
2023/01/27 17:00:53;;;;;;;;;17.50;13.00;;;;;5.86;100.00;102424.56;4890151;28;51014;-68
2023/01/27 17:03:28;;;;;;;;;14.75;13.50;;;;;5.78;100.00;102411.81;4888411;29;50608;-66
2023/01/27 17:05:56;;;;;;;;;15.75;15.00;;;;;5.89;100.00;102435.22;4892372;29;49742;-65
2023/01/27 17:08:24;;;;;;;;;17.00;14.25;;;;;5.97;100.00;102441.84;4893360;28;50019;-65
2023/01/27 17:10:49;;;;;;;;;17.00;10.50;;;;;5.81;100.00;102441.63;4893210;28;49642;-65
2023/01/27 17:13:48;;;;;;;;;15.25;13.75;;;;;5.66;100.00;102427.53;4892340;28;51188;-64
2023/01/27 17:16:20;;;;;;;;;15.50;13.00;;;;;5.77;100.00;102434.38;4898997;29;50990;-66
2023/01/27 17:18:47;;;;;;;;;13.75;13.75;;;;;5.72;100.00;102428.88;4893891;29;49822;-72
2023/01/27 17:21:12;;;;;;;;;16.50;16.50;;;;;5.63;100.00;102415.22;4893316;29;49740;-68
2023/01/27 17:23:38;;;;;;;;;11.75;6.00;;;;;5.77;100.00;102431.75;4892447;29;52280;-67
2023/01/27 17:26:09;;;;;;;;;14.50;14.50;;;;;5.81;100.00;102452.03;4892533;28;49868;-64
2023/01/27 17:28:35;;;;;;;;;11.75;10.00;;;;;5.61;100.00;102428.97;4893929;28;50826;-67
2023/01/27 17:31:06;;;;;;;;;15.00;14.75;;;;;5.46;100.00;102411.47;4892665;28;49906;-66
2023/01/27 17:33:33;;;;;;;;;15.50;15.50;;;;;5.74;100.00;102463.75;4898458;28;51011;-75
2023/01/27 17:36:10;;;;;;;;;18.00;16.25;;;;;5.75;100.00;102464.66;4896342;28;49845;-66